createdAt,value
2023-04-25T00:01:20.579Z,9.10
2023-04-25T00:03:49.874Z,9.23
2023-04-25T00:06:19.818Z,9.27
2023-04-25T00:08:49.852Z,9.20
2023-04-25T00:11:18.834Z,9.33
2023-04-25T00:13:48.040Z,9.07
2023-04-25T00:16:17.381Z,8.83
2023-04-25T00:18:52.243Z,8.67
2023-04-25T00:21:21.300Z,8.70
2023-04-25T00:23:50.495Z,8.73
2023-04-25T00:26:19.782Z,9.07
2023-04-25T00:28:49.009Z,8.73
2023-04-25T00:31:18.049Z,9.00
2023-04-25T00:33:48.895Z,8.63
2023-04-25T00:36:19.225Z,8.70
2023-04-25T00:38:48.410Z,9.30
2023-04-25T00:41:17.697Z,8.90
2023-04-25T00:43:48.056Z,9.30
2023-04-25T00:46:17.750Z,9.00
2023-04-25T00:48:48.255Z,8.53
2023-04-25T00:51:21.580Z,9.00
2023-04-25T00:53:52.127Z,8.80
2023-04-25T00:56:22.424Z,9.17
2023-04-25T00:58:52.143Z,9.07
2023-04-25T01:01:21.804Z,8.60
2023-04-25T01:03:53.858Z,8.70
2023-04-25T01:06:24.275Z,8.60
2023-04-25T01:08:53.955Z,8.50
2023-04-25T01:11:23.964Z,8.60
2023-04-25T01:13:53.390Z,8.50
2023-04-25T01:16:24.791Z,7.97
2023-04-25T01:18:55.979Z,8.60
2023-04-25T01:21:28.922Z,8.60
2023-04-25T01:23:58.719Z,8.90
2023-04-25T01:26:28.295Z,8.53
2023-04-25T01:28:59.412Z,8.47
2023-04-25T01:31:30.589Z,8.63
2023-04-25T01:33:59.965Z,8.47
2023-04-25T01:36:33.316Z,8.30
2023-04-25T01:39:03.592Z,8.50
2023-04-25T01:41:33.283Z,8.90
2023-04-25T01:44:02.773Z,8.67
2023-04-25T01:46:32.735Z,8.13
2023-04-25T01:49:02.167Z,8.10
2023-04-25T01:51:33.388Z,9.03
2023-04-25T01:54:03.459Z,8.60
2023-04-25T01:56:34.558Z,8.40
2023-04-25T01:59:05.160Z,8.77
2023-04-25T02:01:52.478Z,8.40
2023-04-25T02:04:30.580Z,8.97
2023-04-25T02:07:01.103Z,8.83
2023-04-25T02:09:39.239Z,8.20
2023-04-25T02:12:11.811Z,8.53
2023-04-25T02:15:08.314Z,8.80
2023-04-25T02:17:46.341Z,8.90
2023-04-25T02:20:16.799Z,8.67
2023-04-25T02:22:47.459Z,9.10
2023-04-25T02:25:17.141Z,8.80
2023-04-25T02:27:46.639Z,8.90
2023-04-25T02:30:16.384Z,8.57
2023-04-25T02:32:45.729Z,9.03
2023-04-25T02:35:14.993Z,8.83
2023-04-25T02:37:44.419Z,8.60
2023-04-25T02:40:15.183Z,8.87
2023-04-25T02:42:46.578Z,8.90
2023-04-25T02:45:16.817Z,8.43
2023-04-25T02:47:46.052Z,9.47
2023-04-25T02:50:15.388Z,9.67
2023-04-25T02:52:44.856Z,9.10
2023-04-25T02:55:20.000Z,9.43
2023-04-25T02:57:49.840Z,9.83
2023-04-25T03:00:30.147Z,9.30
2023-04-25T03:02:59.578Z,9.27
2023-04-25T03:05:28.827Z,9.07
2023-04-25T03:07:58.000Z,9.20
2023-04-25T03:10:29.001Z,8.73
2023-04-25T03:13:01.580Z,9.47
2023-04-25T03:15:32.216Z,9.37
2023-04-25T03:18:01.792Z,10.33
2023-04-25T03:20:31.188Z,9.77
2023-04-25T03:23:00.754Z,10.03
2023-04-25T03:25:33.415Z,9.27
2023-04-25T03:28:02.540Z,9.33
2023-04-25T03:30:31.819Z,9.37
2023-04-25T03:33:01.463Z,9.70
2023-04-25T03:35:31.289Z,9.80
2023-04-25T03:38:00.456Z,9.87
2023-04-25T03:40:35.366Z,9.57
2023-04-25T03:43:17.007Z,9.10
2023-04-25T03:45:53.096Z,9.23
2023-04-25T03:48:25.747Z,9.20
2023-04-25T03:50:56.888Z,9.80
2023-04-25T03:53:26.692Z,9.30
2023-04-25T03:56:16.080Z,10.00
2023-04-25T03:58:47.611Z,9.37
2023-04-25T04:01:19.348Z,9.53
2023-04-25T04:03:48.930Z,9.47
2023-04-25T04:06:20.011Z,9.97
2023-04-25T04:08:52.627Z,9.90
2023-04-25T04:11:23.246Z,9.53
2023-04-25T04:13:52.754Z,9.53
2023-04-25T04:16:22.459Z,9.67
2023-04-25T04:18:51.469Z,9.10
2023-04-25T04:21:20.569Z,10.10
2023-04-25T04:23:50.151Z,8.97
2023-04-25T04:26:19.750Z,9.33
2023-04-25T04:29:11.667Z,9.03
2023-04-25T04:31:50.765Z,9.40
2023-04-25T04:34:20.331Z,9.50
2023-04-25T04:36:50.176Z,9.17
2023-04-25T04:39:19.508Z,9.57
2023-04-25T04:42:18.890Z,9.20
2023-04-25T04:44:59.558Z,9.40
2023-04-25T04:47:43.990Z,9.00
2023-04-25T04:50:21.354Z,9.50
2023-04-25T04:53:23.056Z,8.97
2023-04-25T04:56:04.061Z,9.13
2023-04-25T04:58:59.739Z,10.23
2023-04-25T05:01:47.855Z,10.40
2023-04-25T05:04:23.812Z,8.63
2023-04-25T05:07:08.058Z,8.63
2023-04-25T05:09:48.908Z,8.67
2023-04-25T05:12:45.173Z,8.27
2023-04-25T05:15:32.866Z,7.90
2023-04-25T05:18:26.575Z,7.63
2023-04-25T05:21:07.772Z,7.37
2023-04-25T05:23:49.402Z,7.60
2023-04-25T05:26:37.114Z,7.67
2023-04-25T05:29:23.783Z,7.83
2023-04-25T05:32:14.226Z,7.97
2023-04-25T05:34:45.391Z,7.80
2023-04-25T05:37:23.808Z,7.80
2023-04-25T05:39:58.567Z,6.60
2023-04-25T05:42:44.489Z,6.77
2023-04-25T05:45:38.846Z,7.10
2023-04-25T05:48:31.031Z,6.40
2023-04-25T05:51:25.273Z,7.00
2023-04-25T05:54:09.480Z,6.90
2023-04-25T05:56:38.792Z,6.40
2023-04-25T05:59:08.269Z,6.53
2023-04-25T06:01:37.597Z,6.80
2023-04-25T06:04:07.153Z,6.63
2023-04-25T06:06:38.078Z,6.47
2023-04-25T06:09:07.812Z,6.57
2023-04-25T06:11:36.991Z,6.73
2023-04-25T06:14:06.333Z,7.00
2023-04-25T06:16:37.525Z,7.13
2023-04-25T06:19:06.859Z,7.17
2023-04-25T06:21:38.111Z,6.90
2023-04-25T06:24:07.669Z,7.00
2023-04-25T06:26:37.241Z,7.13
2023-04-25T06:29:07.099Z,6.77
2023-04-25T06:31:36.587Z,7.17
2023-04-25T06:34:06.037Z,6.57
2023-04-25T06:36:42.436Z,6.80
2023-04-25T06:39:14.954Z,6.57
2023-04-25T06:41:44.199Z,7.63
2023-04-25T06:44:33.443Z,7.43
2023-04-25T06:47:03.280Z,7.20
2023-04-25T06:49:32.779Z,6.53
2023-04-25T06:52:03.865Z,6.83
2023-04-25T06:54:33.036Z,7.67
2023-04-25T06:57:08.260Z,7.07
2023-04-25T06:59:38.155Z,7.00
2023-04-25T07:02:07.940Z,6.67
2023-04-25T07:04:37.372Z,6.93
2023-04-25T07:07:08.157Z,7.17
2023-04-25T07:09:46.844Z,6.57
2023-04-25T07:12:16.230Z,6.83
2023-04-25T07:14:46.514Z,7.20
2023-04-25T07:17:16.370Z,7.30
2023-04-25T07:19:45.833Z,6.93
2023-04-25T07:22:16.604Z,7.13
2023-04-25T07:24:49.840Z,7.07
2023-04-25T07:27:21.878Z,7.23
2023-04-25T07:29:59.065Z,7.33
2023-04-25T07:32:28.666Z,7.97
2023-04-25T07:34:58.093Z,7.50
2023-04-25T07:37:29.086Z,8.10
2023-04-25T07:40:07.291Z,7.03
2023-04-25T07:42:36.406Z,7.33
2023-04-25T07:45:07.633Z,7.50
2023-04-25T07:47:37.331Z,7.23
2023-04-25T07:50:08.920Z,7.37
2023-04-25T07:52:39.654Z,7.53
2023-04-25T07:55:18.449Z,8.00
2023-04-25T07:58:09.113Z,7.70
2023-04-25T08:00:40.586Z,8.47
2023-04-25T08:03:40.165Z,8.53
2023-04-25T08:06:16.841Z,7.77
2023-04-25T08:09:13.727Z,8.10
2023-04-25T08:11:45.043Z,8.10
2023-04-25T08:14:17.537Z,8.53
2023-04-25T08:16:48.545Z,8.50
2023-04-25T08:19:18.190Z,8.60
2023-04-25T08:21:48.389Z,8.37
2023-04-25T08:24:24.598Z,8.63
2023-04-25T08:26:55.046Z,8.40
2023-04-25T08:29:26.973Z,8.50
2023-04-25T08:31:56.878Z,8.63
2023-04-25T08:34:26.569Z,8.73
2023-04-25T08:36:56.367Z,8.60
2023-04-25T08:39:54.267Z,8.70
2023-04-25T08:42:28.879Z,8.67
2023-04-25T08:44:59.570Z,8.50
2023-04-25T08:47:35.853Z,9.03
2023-04-25T08:50:06.517Z,8.60
2023-04-25T08:52:39.911Z,8.77
2023-04-25T08:55:13.942Z,8.60
2023-04-25T08:57:44.830Z,8.27
2023-04-25T09:00:15.399Z,8.60
2023-04-25T09:02:48.879Z,8.67
2023-04-25T09:05:20.884Z,9.03
2023-04-25T09:07:51.237Z,8.53
2023-04-25T09:10:22.344Z,8.13
2023-04-25T09:13:05.863Z,8.67
2023-04-25T09:15:52.319Z,8.40
2023-04-25T09:18:48.280Z,7.37
2023-04-25T09:21:24.830Z,8.70
2023-04-25T09:23:54.624Z,7.80
2023-04-25T09:26:28.232Z,7.80
2023-04-25T09:29:08.827Z,7.47
2023-04-25T09:31:42.007Z,7.70
2023-04-25T09:34:16.620Z,7.50
2023-04-25T09:36:50.444Z,7.20
2023-04-25T09:39:31.490Z,7.23
2023-04-25T09:42:16.752Z,7.40
2023-04-25T09:44:47.890Z,7.93
2023-04-25T09:47:18.935Z,7.47
2023-04-25T09:49:48.631Z,7.70
2023-04-25T09:52:19.618Z,7.80
2023-04-25T09:55:10.126Z,7.60
2023-04-25T09:57:41.818Z,7.40
2023-04-25T10:00:13.955Z,7.23
2023-04-25T10:02:49.662Z,7.37
2023-04-25T10:05:39.165Z,7.27
2023-04-25T10:08:09.778Z,7.40
2023-04-25T10:10:40.632Z,7.63
2023-04-25T10:13:11.237Z,6.73
2023-04-25T10:15:41.309Z,6.57
2023-04-25T10:18:11.676Z,6.70
2023-04-25T10:20:41.076Z,6.63
2023-04-25T10:23:16.047Z,6.80
2023-04-25T10:25:45.938Z,6.30
2023-04-25T10:28:16.700Z,6.20
2023-04-25T10:30:59.976Z,6.47
2023-04-25T10:33:35.653Z,6.23
2023-04-25T10:36:13.138Z,6.60
2023-04-25T10:38:43.023Z,6.27
2023-04-25T10:41:13.812Z,6.73
2023-04-25T10:43:45.589Z,6.90
2023-04-25T10:46:19.803Z,6.47
2023-04-25T10:48:51.049Z,5.90
2023-04-25T10:51:22.587Z,6.30
2023-04-25T10:54:03.079Z,6.23
2023-04-25T10:56:33.428Z,6.30
2023-04-25T10:59:12.544Z,5.77
2023-04-25T11:01:43.255Z,5.93
2023-04-25T11:04:23.667Z,5.93
2023-04-25T11:07:09.843Z,6.03
2023-04-25T11:09:41.846Z,5.47
2023-04-25T11:12:12.852Z,6.10
2023-04-25T11:14:43.776Z,5.80
2023-04-25T11:17:13.135Z,5.70
2023-04-25T11:19:42.504Z,5.50
2023-04-25T11:22:12.670Z,5.60
2023-04-25T11:24:42.006Z,5.63
2023-04-25T11:27:11.178Z,4.97
2023-04-25T11:29:40.398Z,5.13
2023-04-25T11:32:11.525Z,5.60
2023-04-25T11:34:40.699Z,5.27
2023-04-25T11:37:10.244Z,4.93
2023-04-25T11:39:39.902Z,4.77
2023-04-25T11:42:13.869Z,5.00
2023-04-25T11:44:43.502Z,4.90
2023-04-25T11:47:14.197Z,4.83
2023-04-25T11:49:43.498Z,4.57
2023-04-25T11:52:12.926Z,4.77
2023-04-25T11:54:42.215Z,5.00
2023-04-25T11:57:11.602Z,5.10
2023-04-25T11:59:41.492Z,5.13
2023-04-25T12:02:11.271Z,5.40
2023-04-25T12:04:43.668Z,5.07
2023-04-25T12:07:13.078Z,5.03
2023-04-25T12:09:42.633Z,5.30
2023-04-25T12:12:12.396Z,5.27
2023-04-25T12:14:42.130Z,4.90
2023-04-25T12:17:12.795Z,5.17
2023-04-25T12:19:45.237Z,5.20
2023-04-25T12:22:23.218Z,5.17
2023-04-25T12:24:54.412Z,4.80
2023-04-25T12:27:23.691Z,5.40
2023-04-25T12:29:54.809Z,4.87
2023-04-25T12:32:24.249Z,4.93
2023-04-25T12:34:55.575Z,4.83
2023-04-25T12:37:24.949Z,4.53
2023-04-25T12:39:54.344Z,5.10
2023-04-25T12:42:23.474Z,5.37
2023-04-25T12:44:53.144Z,5.17
2023-04-25T12:47:22.488Z,5.07
2023-04-25T12:49:51.783Z,4.97
2023-04-25T12:52:22.462Z,4.73
2023-04-25T12:54:51.710Z,5.07
2023-04-25T12:57:21.483Z,5.10
2023-04-25T12:59:50.744Z,5.07
2023-04-25T13:02:20.341Z,5.10
2023-04-25T13:04:49.853Z,5.27
2023-04-25T13:07:19.239Z,4.80
2023-04-25T13:09:50.091Z,4.90
2023-04-25T13:12:19.424Z,5.00
2023-04-25T13:14:48.797Z,5.13
2023-04-25T13:17:18.087Z,5.33
2023-04-25T13:19:47.302Z,5.30
2023-04-25T13:22:17.853Z,5.10
2023-04-25T13:24:47.076Z,4.60
2023-04-25T13:27:17.821Z,5.43
2023-04-25T13:29:47.064Z,4.93
2023-04-25T13:32:16.578Z,5.50
2023-04-25T13:34:45.735Z,5.00
2023-04-25T13:37:14.921Z,5.10
2023-04-25T13:39:43.938Z,5.30
2023-04-25T13:42:13.033Z,4.90
2023-04-25T13:44:43.882Z,5.10
2023-04-25T13:47:13.271Z,5.40
2023-04-25T13:49:42.714Z,5.27
2023-04-25T13:52:12.064Z,5.47
2023-04-25T13:54:41.529Z,5.23
2023-04-25T13:57:12.127Z,5.00
2023-04-25T13:59:43.469Z,4.70
2023-04-25T14:02:12.892Z,5.37
2023-04-25T14:04:42.642Z,5.43
2023-04-25T14:07:12.148Z,5.30
2023-04-25T14:09:41.227Z,5.70
2023-04-25T14:12:11.256Z,5.37
2023-04-25T14:14:40.957Z,5.70
2023-04-25T14:17:12.051Z,5.37
2023-04-25T14:19:44.390Z,5.83
2023-04-25T14:22:13.835Z,5.60
2023-04-25T14:24:43.077Z,5.67
2023-04-25T14:27:12.862Z,5.43
2023-04-25T14:29:42.458Z,5.53
2023-04-25T14:32:13.020Z,6.00
2023-04-25T14:34:42.517Z,5.70
2023-04-25T14:37:11.617Z,5.83
2023-04-25T14:39:40.492Z,5.67
2023-04-25T14:42:09.885Z,5.90
2023-04-25T14:44:39.967Z,6.10
2023-04-25T14:47:09.816Z,5.67
2023-04-25T14:49:40.608Z,5.93
2023-04-25T14:52:10.093Z,5.80
2023-04-25T14:54:39.176Z,6.00
2023-04-25T14:57:08.590Z,5.87
2023-04-25T14:59:37.955Z,6.20
2023-04-25T15:02:07.588Z,5.77
2023-04-25T15:04:37.078Z,6.57
2023-04-25T15:07:07.879Z,6.53
2023-04-25T15:09:37.059Z,6.07
2023-04-25T15:12:06.622Z,6.40
2023-04-25T15:14:35.912Z,6.10
2023-04-25T15:17:05.316Z,6.10
2023-04-25T15:19:34.723Z,6.23
2023-04-25T15:22:04.119Z,6.40
2023-04-25T15:24:35.049Z,6.13
2023-04-25T15:27:05.492Z,6.33
2023-04-25T15:29:34.573Z,6.43
2023-04-25T15:32:03.987Z,6.27
2023-04-25T15:34:34.688Z,6.17
2023-04-25T15:37:04.575Z,6.73
2023-04-25T15:39:35.676Z,6.10
2023-04-25T15:42:05.004Z,6.50
2023-04-25T15:44:35.355Z,7.00
2023-04-25T15:47:04.634Z,6.23
2023-04-25T15:49:33.848Z,6.50
2023-04-25T15:52:03.156Z,6.43
2023-04-25T15:54:34.025Z,6.10
2023-04-25T15:57:03.226Z,6.30
2023-04-25T15:59:34.991Z,6.13
2023-04-25T16:02:04.533Z,6.50
2023-04-25T16:04:35.660Z,6.60
2023-04-25T16:07:05.374Z,6.57
2023-04-25T16:09:39.033Z,6.50
2023-04-25T16:12:09.867Z,7.23
2023-04-25T16:14:39.315Z,7.10
2023-04-25T16:17:08.663Z,7.30
2023-04-25T16:19:37.791Z,7.00
2023-04-25T16:22:08.992Z,6.30
2023-04-25T16:24:39.514Z,7.40
2023-04-25T16:27:09.142Z,6.40
2023-04-25T16:29:39.015Z,6.73
2023-04-25T16:32:08.695Z,6.93
2023-04-25T16:34:38.015Z,7.10
2023-04-25T16:37:07.209Z,7.17
2023-04-25T16:39:36.826Z,6.93
2023-04-25T16:42:07.759Z,6.70
2023-04-25T16:44:36.934Z,6.47
2023-04-25T16:47:06.378Z,7.00
2023-04-25T16:49:35.996Z,6.67
2023-04-25T16:52:05.190Z,6.87
2023-04-25T16:54:34.350Z,7.30
2023-04-25T16:57:04.551Z,7.17
2023-04-25T16:59:35.296Z,7.33
2023-04-25T17:02:05.069Z,6.67
2023-04-25T17:04:34.364Z,6.80
2023-04-25T17:07:04.425Z,7.50
2023-04-25T17:09:33.720Z,7.10
2023-04-25T17:12:04.060Z,7.00
2023-04-25T17:14:36.122Z,6.83
2023-04-25T17:17:05.478Z,7.00
2023-04-25T17:19:34.974Z,7.27
2023-04-25T17:22:04.415Z,7.20
2023-04-25T17:24:33.595Z,6.90
2023-04-25T17:27:03.254Z,7.27
2023-04-25T17:29:35.148Z,6.90
2023-04-25T17:32:04.705Z,6.37
2023-04-25T17:34:34.258Z,7.00
2023-04-25T17:37:03.359Z,7.30
2023-04-25T17:39:32.527Z,7.37
2023-04-25T17:42:02.365Z,7.10
2023-04-25T17:44:31.588Z,6.67
2023-04-25T17:47:02.472Z,7.20
2023-04-25T17:49:33.190Z,7.00
2023-04-25T17:52:02.254Z,7.27
2023-04-25T17:54:31.368Z,7.33
2023-04-25T17:57:00.504Z,7.87
2023-04-25T17:59:29.663Z,8.30
2023-04-25T18:01:59.946Z,9.33
2023-04-25T18:04:30.667Z,8.20
2023-04-25T18:06:59.895Z,7.63
2023-04-25T18:09:30.305Z,7.70
2023-04-25T18:12:00.542Z,7.23
2023-04-25T18:14:30.054Z,7.00
2023-04-25T18:16:59.981Z,7.93
2023-04-25T18:19:30.574Z,8.17
2023-04-25T18:21:59.585Z,8.90
2023-04-25T18:24:29.110Z,8.80
2023-04-25T18:27:00.836Z,8.00
2023-04-25T18:29:33.560Z,7.43
2023-04-25T18:32:05.092Z,7.70
2023-04-25T18:34:35.998Z,7.10
2023-04-25T18:37:05.119Z,7.50
2023-04-25T18:39:34.429Z,7.33
2023-04-25T18:42:06.666Z,7.90
2023-04-25T18:44:40.338Z,7.33
2023-04-25T18:47:10.232Z,7.03
2023-04-25T18:49:41.581Z,7.60
2023-04-25T18:52:12.734Z,7.20
2023-04-25T18:54:42.532Z,7.40
2023-04-25T18:57:14.549Z,6.57
2023-04-25T18:59:44.304Z,6.90
2023-04-25T19:02:16.007Z,7.33
2023-04-25T19:04:46.846Z,7.50
2023-04-25T19:07:16.490Z,6.97
2023-04-25T19:09:45.646Z,6.80
2023-04-25T19:12:15.127Z,6.97
2023-04-25T19:14:44.374Z,6.97
2023-04-25T19:17:13.718Z,7.40
2023-04-25T19:19:42.868Z,7.23
2023-04-25T19:22:13.448Z,7.53
2023-04-25T19:24:42.865Z,7.00
2023-04-25T19:27:12.704Z,7.20
2023-04-25T19:29:45.998Z,7.20
2023-04-25T19:32:15.630Z,7.00
2023-04-25T19:34:44.760Z,7.00
2023-04-25T19:37:15.146Z,7.00
2023-04-25T19:39:44.474Z,6.97
2023-04-25T19:42:13.996Z,6.90
2023-04-25T19:44:42.962Z,6.93
2023-04-25T19:47:12.180Z,6.60
2023-04-25T19:49:41.214Z,7.43
2023-04-25T19:52:14.829Z,7.60
2023-04-25T19:54:46.640Z,7.50
2023-04-25T19:57:15.760Z,7.60
2023-04-25T19:59:48.050Z,7.13
2023-04-25T20:02:18.551Z,7.60
2023-04-25T20:04:47.930Z,7.00
2023-04-25T20:07:20.054Z,7.30
2023-04-25T20:09:51.213Z,7.63
2023-04-25T20:12:20.920Z,7.30
2023-04-25T20:14:50.180Z,7.33
2023-04-25T20:17:19.329Z,7.37
2023-04-25T20:19:49.134Z,7.40
2023-04-25T20:22:18.410Z,7.60
2023-04-25T20:24:47.670Z,7.17
2023-04-25T20:27:18.500Z,7.23
2023-04-25T20:29:47.965Z,7.60
2023-04-25T20:32:17.187Z,8.73
2023-04-25T20:34:46.667Z,8.13
2023-04-25T20:37:16.707Z,7.73
2023-04-25T20:39:46.234Z,7.53
2023-04-25T20:42:15.432Z,8.20
2023-04-25T20:44:46.019Z,8.50
2023-04-25T20:47:15.270Z,7.90
2023-04-25T20:49:44.550Z,8.10
2023-04-25T20:52:13.855Z,8.57
2023-04-25T20:54:43.493Z,8.53
2023-04-25T20:57:13.096Z,7.97
2023-04-25T20:59:42.092Z,7.87
2023-04-25T21:02:16.101Z,7.80
2023-04-25T21:04:45.726Z,8.00
2023-04-25T21:07:15.205Z,7.47
2023-04-25T21:09:45.541Z,7.60
2023-04-25T21:12:14.829Z,7.57
2023-04-25T21:14:43.948Z,8.40
2023-04-25T21:17:14.553Z,7.73
2023-04-25T21:19:43.902Z,7.90
2023-04-25T21:22:13.220Z,7.47
2023-04-25T21:24:42.530Z,8.03
2023-04-25T21:27:11.840Z,7.40
2023-04-25T21:29:41.178Z,8.47
2023-04-25T21:32:10.902Z,7.27
2023-04-25T21:34:43.156Z,7.83
2023-04-25T21:37:12.452Z,7.50
2023-04-25T21:39:42.092Z,7.60
2023-04-25T21:42:11.361Z,7.80
2023-04-25T21:44:40.799Z,7.53
2023-04-25T21:47:10.179Z,7.70
2023-04-25T21:49:39.356Z,7.70
2023-04-25T21:52:10.402Z,8.10
2023-04-25T21:54:39.650Z,7.73
2023-04-25T21:57:08.788Z,7.33
2023-04-25T21:59:38.335Z,7.70
2023-04-25T22:02:07.947Z,7.63
2023-04-25T22:04:37.654Z,7.50
2023-04-25T22:07:07.516Z,8.13
2023-04-25T22:09:47.466Z,7.93
2023-04-25T22:12:23.800Z,7.07
2023-04-25T22:14:53.283Z,7.67
2023-04-25T22:17:25.866Z,7.77
2023-04-25T22:19:55.695Z,7.90
2023-04-25T22:22:25.384Z,7.67
2023-04-25T22:24:56.421Z,8.17
2023-04-25T22:27:25.834Z,8.30
2023-04-25T22:29:55.671Z,8.20
2023-04-25T22:32:24.862Z,7.90
2023-04-25T22:34:54.337Z,8.20
2023-04-25T22:37:24.564Z,7.43
2023-04-25T22:39:55.837Z,8.50
2023-04-25T22:42:25.445Z,7.90
2023-04-25T22:44:54.883Z,7.90
2023-04-25T22:47:24.750Z,8.57
2023-04-25T22:49:54.414Z,8.57
2023-04-25T22:52:23.499Z,8.37
2023-04-25T22:54:52.777Z,8.10
2023-04-25T22:57:23.644Z,8.40
2023-04-25T22:59:56.220Z,8.50
2023-04-25T23:02:26.164Z,8.10
2023-04-25T23:04:56.025Z,8.10
2023-04-25T23:07:25.261Z,8.00
2023-04-25T23:09:54.951Z,8.77
2023-04-25T23:12:25.945Z,8.10
2023-04-25T23:14:55.383Z,7.67
2023-04-25T23:17:24.689Z,7.83
2023-04-25T23:19:54.028Z,8.63
2023-04-25T23:22:23.207Z,8.33
2023-04-25T23:24:52.425Z,8.60
2023-04-25T23:27:21.579Z,8.13
2023-04-25T23:29:56.542Z,8.03
2023-04-25T23:32:26.296Z,8.23
2023-04-25T23:34:56.006Z,8.43
2023-04-25T23:37:25.808Z,8.70
2023-04-25T23:39:55.571Z,8.53
2023-04-25T23:42:24.934Z,8.63
2023-04-25T23:44:55.482Z,7.77
2023-04-25T23:47:25.072Z,8.10
2023-04-25T23:49:54.529Z,8.10
2023-04-25T23:52:23.713Z,8.13
2023-04-25T23:54:53.060Z,8.97
2023-04-25T23:57:22.891Z,7.80
2023-04-25T23:59:52.356Z,8.17
